Time;durP1;ratioP1;P1;durP2;ratioP2;P2;SDS_P1;SDS_P2;PMS_P1;PMS_P2;Temp;Humidity;BMP_temperature;BMP_pressure;BME280_temperature;BME280_humidity;BME280_pressure;Samples;Min_cycle;Max_cycle;Signal;HPM_P1;HPM_P2
2024/03/23 00:02:27;;;;;;;14.02;10.00;;;11.20;99.90;;;;;;5076913;28;20058;-45
2024/03/23 00:04:54;;;;;;;14.75;10.32;;;11.20;99.90;;;;;;5068718;28;20041;-44
2024/03/23 00:07:21;;;;;;;14.00;9.98;;;11.20;99.90;;;;;;5074307;28;20463;-45
2024/03/23 00:09:47;;;;;;;13.05;10.15;;;11.10;99.90;;;;;;5067386;28;20043;-48
2024/03/23 00:12:14;;;;;;;15.70;10.45;;;11.20;99.90;;;;;;5074005;28;20457;-44
2024/03/23 00:14:42;;;;;;;13.30;10.13;;;11.10;99.90;;;;;;5074099;28;20041;-43
2024/03/23 00:17:08;;;;;;;14.55;10.10;;;11.10;99.90;;;;;;5079250;28;20489;-43
2024/03/23 00:19:35;;;;;;;13.43;9.40;;;11.10;99.90;;;;;;5072403;28;20036;-43
2024/03/23 00:22:02;;;;;;;13.95;10.15;;;11.00;99.90;;;;;;5051312;28;20118;-41
2024/03/23 00:24:30;;;;;;;12.40;10.40;;;11.00;99.90;;;;;;5072924;28;20043;-48
2024/03/23 00:26:57;;;;;;;12.13;10.10;;;11.00;99.90;;;;;;5073556;28;20089;-41
2024/03/23 00:29:24;;;;;;;13.50;10.68;;;10.90;99.90;;;;;;5070553;28;20113;-46
2024/03/23 00:31:51;;;;;;;16.95;10.45;;;10.90;99.90;;;;;;5072387;28;20058;-43
2024/03/23 00:34:18;;;;;;;13.60;10.52;;;10.90;99.90;;;;;;5071990;28;20045;-46
2024/03/23 00:36:45;;;;;;;13.75;10.88;;;10.80;99.90;;;;;;5072958;28;20584;-44
2024/03/23 00:39:12;;;;;;;13.70;9.93;;;10.70;99.90;;;;;;5070640;28;20044;-48
2024/03/23 00:41:39;;;;;;;14.00;9.95;;;10.60;99.90;;;;;;5076015;28;20044;-46
2024/03/23 00:44:06;;;;;;;12.32;9.50;;;10.60;99.90;;;;;;5047665;28;20044;-48
2024/03/23 00:46:33;;;;;;;15.40;10.20;;;10.50;99.90;;;;;;5076490;28;20037;-44
2024/03/23 00:49:00;;;;;;;16.17;9.88;;;10.50;99.90;;;;;;5066227;28;20410;-47
2024/03/23 00:51:27;;;;;;;13.98;10.65;;;10.50;99.90;;;;;;5063825;28;20044;-46
2024/03/23 00:53:53;;;;;;;13.43;10.13;;;10.50;99.90;;;;;;5071710;28;20071;-50
2024/03/23 00:56:18;;;;;;;13.23;10.05;;;10.50;99.90;;;;;;5069633;28;20458;-47
2024/03/23 00:58:44;;;;;;;13.00;8.85;;;10.50;99.90;;;;;;5079797;28;20140;-45
2024/03/23 01:01:10;;;;;;;15.13;9.38;;;10.40;99.90;;;;;;5068128;28;20456;-43
2024/03/23 01:03:36;;;;;;;12.13;9.13;;;10.40;99.90;;;;;;5071742;28;20052;-43
2024/03/23 01:06:06;;;;;;;10.55;8.88;;;10.40;99.90;;;;;;5055404;28;20283;-50
2024/03/23 01:08:32;;;;;;;14.02;10.00;;;10.30;99.90;;;;;;5070082;28;20037;-51
2024/03/23 01:10:59;;;;;;;15.40;10.10;;;10.20;99.90;;;;;;5070391;28;20047;-52
2024/03/23 01:13:26;;;;;;;14.07;9.27;;;10.20;99.90;;;;;;5071033;28;20074;-44
2024/03/23 01:15:53;;;;;;;12.30;10.35;;;10.20;99.90;;;;;;5070094;28;20044;-46
2024/03/23 01:18:20;;;;;;;17.73;11.30;;;10.10;99.90;;;;;;5081839;28;20142;-45
2024/03/23 01:20:47;;;;;;;13.48;10.27;;;10.20;99.90;;;;;;5072217;28;20051;-44
2024/03/23 01:23:13;;;;;;;15.43;10.95;;;10.30;99.90;;;;;;5066331;28;20427;-49
2024/03/23 01:25:39;;;;;;;14.82;10.80;;;10.30;99.90;;;;;;5074266;28;20100;-44
2024/03/23 01:28:09;;;;;;;15.05;10.77;;;10.40;99.90;;;;;;5065162;28;20116;-42
2024/03/23 01:30:35;;;;;;;15.70;10.80;;;10.40;99.90;;;;;;5071210;28;20040;-43
2024/03/23 01:33:02;;;;;;;14.07;10.45;;;10.40;99.90;;;;;;5074726;28;20095;-45
2024/03/23 01:35:28;;;;;;;15.15;11.35;;;10.40;99.90;;;;;;5068994;28;20329;-42
2024/03/23 01:37:54;;;;;;;14.45;10.65;;;10.40;99.90;;;;;;5074175;28;20064;-45
2024/03/23 01:40:21;;;;;;;15.05;11.00;;;10.40;99.90;;;;;;5073763;28;20041;-46
2024/03/23 01:43:04;;;;;;;14.60;10.98;;;10.60;99.90;;;;;;5079859;28;20532;-45
2024/03/23 01:45:31;;;;;;;14.23;9.95;;;10.60;99.90;;;;;;5082518;28;20044;-44
2024/03/23 01:47:57;;;;;;;15.68;10.50;;;10.70;99.90;;;;;;5074422;28;20044;-49
2024/03/23 01:50:24;;;;;;;17.75;12.02;;;10.70;99.90;;;;;;5075408;28;20044;-46
2024/03/23 01:52:50;;;;;;;16.10;10.75;;;10.80;99.90;;;;;;5074865;28;20177;-47
2024/03/23 01:55:17;;;;;;;13.70;10.70;;;10.80;99.90;;;;;;5072751;28;20044;-48
2024/03/23 01:57:43;;;;;;;16.33;11.65;;;10.90;99.90;;;;;;5070754;28;20043;-46
2024/03/23 02:00:12;;;;;;;14.95;10.55;;;10.90;99.90;;;;;;5072664;28;20085;-48
2024/03/23 02:02:45;;;;;;;15.00;10.50;;;10.90;99.90;;;;;;5073862;28;20047;-44
2024/03/23 02:05:15;;;;;;;12.80;9.80;;;11.00;99.90;;;;;;5071570;28;20049;-45
2024/03/23 02:07:42;;;;;;;15.43;10.70;;;11.00;99.90;;;;;;5075996;28;20123;-46
2024/03/23 02:10:09;;;;;;;18.63;11.35;;;11.10;99.90;;;;;;5067111;28;20475;-45
2024/03/23 02:12:36;;;;;;;13.85;10.45;;;11.10;99.90;;;;;;5077148;28;20040;-48
2024/03/23 02:15:03;;;;;;;14.93;10.88;;;11.10;99.90;;;;;;5068408;28;20090;-46
2024/03/23 02:17:33;;;;;;;12.07;10.43;;;11.10;99.90;;;;;;5066171;28;20627;-42
2024/03/23 02:20:00;;;;;;;14.45;10.75;;;11.10;99.90;;;;;;5077469;28;20444;-45
2024/03/23 02:22:37;;;;;;;14.77;10.35;;;11.10;99.90;;;;;;5072566;28;20044;-43
2024/03/23 02:25:04;;;;;;;14.80;10.90;;;11.10;99.90;;;;;;5074530;28;20440;-47
2024/03/23 02:27:30;;;;;;;17.58;11.52;;;11.10;99.90;;;;;;5076276;28;20044;-46
2024/03/23 02:29:56;;;;;;;16.77;11.27;;;11.10;99.90;;;;;;5073534;28;20044;-50
2024/03/23 02:32:22;;;;;;;13.43;10.20;;;11.00;99.90;;;;;;5075695;28;20075;-44
2024/03/23 02:34:48;;;;;;;14.02;10.23;;;11.10;99.90;;;;;;5071783;28;20044;-47
2024/03/23 02:37:14;;;;;;;12.93;9.95;;;11.00;99.90;;;;;;5073339;28;20529;-47
2024/03/23 02:39:40;;;;;;;15.05;10.02;;;11.00;99.90;;;;;;5074391;28;20053;-45
2024/03/23 02:42:06;;;;;;;14.88;11.13;;;11.10;99.90;;;;;;5072022;28;20053;-41
2024/03/23 02:44:32;;;;;;;18.15;10.25;;;11.10;99.90;;;;;;5071051;28;20151;-44
2024/03/23 02:46:58;;;;;;;15.95;10.55;;;11.10;99.90;;;;;;5082277;28;20060;-43
2024/03/23 02:49:25;;;;;;;14.02;10.00;;;11.10;99.90;;;;;;5067910;28;20064;-44
2024/03/23 02:51:51;;;;;;;18.15;10.93;;;11.20;99.90;;;;;;5072169;28;20040;-48
2024/03/23 02:54:17;;;;;;;14.93;10.48;;;11.10;99.90;;;;;;5083013;28;20462;-47
2024/03/23 02:56:43;;;;;;;16.73;10.85;;;11.10;99.90;;;;;;5069016;28;20460;-49
2024/03/23 02:59:09;;;;;;;16.15;10.70;;;11.10;99.90;;;;;;5069053;28;20044;-47
2024/03/23 03:01:35;;;;;;;14.23;10.77;;;11.00;99.90;;;;;;5075794;28;20044;-45
2024/03/23 03:04:01;;;;;;;12.98;10.18;;;11.00;99.90;;;;;;5071109;28;20045;-49
2024/03/23 03:06:28;;;;;;;12.57;10.23;;;11.10;99.90;;;;;;5076920;28;20067;-49
2024/03/23 03:08:54;;;;;;;12.90;10.30;;;11.10;99.90;;;;;;5071754;28;20040;-44
2024/03/23 03:11:20;;;;;;;16.02;10.50;;;11.10;99.90;;;;;;5082057;28;20036;-42
2024/03/23 03:13:46;;;;;;;14.52;10.13;;;11.20;99.90;;;;;;5070500;28;20109;-45
2024/03/23 03:16:12;;;;;;;13.35;10.02;;;11.20;99.90;;;;;;5059958;28;20463;-46
2024/03/23 03:18:40;;;;;;;12.45;10.32;;;11.20;99.90;;;;;;5072359;28;20064;-43
2024/03/23 03:21:10;;;;;;;12.70;10.15;;;11.20;99.90;;;;;;5075225;28;20855;-43
2024/03/23 03:23:40;;;;;;;14.05;11.27;;;11.20;99.90;;;;;;5066502;28;20089;-44
2024/03/23 03:26:06;;;;;;;15.93;10.02;;;11.20;99.90;;;;;;5070674;28;20086;-48
2024/03/23 03:28:32;;;;;;;13.85;10.40;;;11.20;99.90;;;;;;5081145;28;20051;-49
2024/03/23 03:30:59;;;;;;;14.55;11.43;;;11.20;99.90;;;;;;5068253;28;20343;-42
2024/03/23 03:33:29;;;;;;;13.88;10.73;;;11.10;99.90;;;;;;5078793;28;20086;-43
2024/03/23 03:35:55;;;;;;;16.77;10.35;;;11.00;99.90;;;;;;5065900;28;20055;-47
2024/03/23 03:38:21;;;;;;;12.82;10.80;;;10.90;99.90;;;;;;5076797;28;20040;-45
2024/03/23 03:40:47;;;;;;;14.57;11.38;;;10.90;99.90;;;;;;5084813;28;20037;-46
2024/03/23 03:43:13;;;;;;;12.77;10.98;;;10.80;99.90;;;;;;5075037;28;20052;-45
2024/03/23 03:45:40;;;;;;;13.10;10.90;;;10.90;99.90;;;;;;5076370;28;20039;-45
2024/03/23 03:48:06;;;;;;;15.13;10.95;;;10.90;99.90;;;;;;5077998;28;20044;-46
2024/03/23 03:50:32;;;;;;;14.65;11.43;;;11.00;99.90;;;;;;5078112;28;20040;-44
2024/03/23 03:52:58;;;;;;;16.75;11.20;;;11.00;99.90;;;;;;5057016;28;20140;-42
2024/03/23 03:55:24;;;;;;;15.48;11.10;;;11.00;99.90;;;;;;5063707;28;20049;-45
2024/03/23 03:57:50;;;;;;;17.52;11.40;;;10.90;99.90;;;;;;5066977;28;20048;-41
2024/03/23 04:00:16;;;;;;;13.98;10.88;;;10.90;99.90;;;;;;5068029;28;20421;-44
2024/03/23 04:02:42;;;;;;;16.92;11.52;;;10.90;99.90;;;;;;5080934;28;20051;-44
2024/03/23 04:05:08;;;;;;;17.25;11.57;;;10.90;99.90;;;;;;5061382;28;20041;-47
2024/03/23 04:07:34;;;;;;;13.77;10.52;;;10.90;99.90;;;;;;5065195;28;20516;-44
2024/03/23 04:10:00;;;;;;;14.10;11.48;;;10.90;99.90;;;;;;5065542;28;20045;-42
2024/03/23 04:12:26;;;;;;;16.90;11.32;;;10.80;99.90;;;;;;5074467;28;20055;-44
2024/03/23 04:14:52;;;;;;;14.25;11.48;;;10.80;99.90;;;;;;5063642;28;20036;-43
2024/03/23 04:17:19;;;;;;;15.32;11.57;;;10.70;99.90;;;;;;5071409;28;20576;-44
2024/03/23 04:19:45;;;;;;;14.40;11.88;;;10.70;99.90;;;;;;5074622;28;20048;-45
2024/03/23 04:22:11;;;;;;;16.23;11.70;;;10.60;99.90;;;;;;5068095;28;20335;-44
2024/03/23 04:24:37;;;;;;;13.57;11.20;;;10.60;99.90;;;;;;5063895;28;20508;-40
2024/03/23 04:27:03;;;;;;;18.27;11.32;;;10.50;99.90;;;;;;5067016;28;20047;-44
2024/03/23 04:29:29;;;;;;;17.52;11.70;;;10.60;99.90;;;;;;5072265;28;20124;-43
2024/03/23 04:31:55;;;;;;;15.57;11.88;;;10.60;99.90;;;;;;5066102;28;20543;-43
2024/03/23 04:34:23;;;;;;;14.63;10.93;;;10.60;99.90;;;;;;5070879;28;20041;-41
2024/03/23 04:36:49;;;;;;;13.85;10.82;;;10.60;99.90;;;;;;5059755;28;20049;-47
2024/03/23 04:39:14;;;;;;;15.23;11.65;;;10.60;99.90;;;;;;5069864;28;20593;-45
2024/03/23 04:41:41;;;;;;;15.40;11.18;;;10.60;99.90;;;;;;5075956;28;20488;-46
2024/03/23 04:44:07;;;;;;;17.90;10.40;;;10.70;99.90;;;;;;5066525;28;20048;-47
2024/03/23 04:46:33;;;;;;;18.48;11.50;;;10.70;99.90;;;;;;5076614;28;20040;-43
2024/03/23 04:48:59;;;;;;;15.10;11.65;;;10.70;99.90;;;;;;5081421;28;20052;-42
2024/03/23 04:51:25;;;;;;;18.92;11.93;;;10.60;99.90;;;;;;5080715;28;20040;-44
2024/03/23 04:53:52;;;;;;;14.18;10.93;;;10.60;99.90;;;;;;5079904;28;20037;-47
2024/03/23 04:56:18;;;;;;;17.33;10.88;;;10.50;99.90;;;;;;5076441;28;21154;-49
2024/03/23 04:58:44;;;;;;;14.75;10.75;;;10.40;99.90;;;;;;5076312;28;20044;-42
2024/03/23 05:01:13;;;;;;;14.50;11.10;;;10.40;99.90;;;;;;5071780;28;20041;-46
2024/03/23 05:03:40;;;;;;;15.05;10.45;;;10.30;99.90;;;;;;5072302;28;20314;-44
2024/03/23 05:06:06;;;;;;;14.43;10.68;;;10.30;99.90;;;;;;5081357;28;20052;-50
2024/03/23 05:08:32;;;;;;;19.60;10.57;;;10.30;99.90;;;;;;5065276;28;20037;-46
2024/03/23 05:10:58;;;;;;;12.20;9.88;;;10.30;99.90;;;;;;5064248;28;20532;-46
2024/03/23 05:13:24;;;;;;;16.38;10.85;;;10.40;99.90;;;;;;5072587;28;20051;-48
2024/03/23 05:15:54;;;;;;;15.52;10.27;;;10.40;99.90;;;;;;5077918;28;20044;-47
2024/03/23 05:18:21;;;;;;;15.75;10.77;;;10.40;99.90;;;;;;5073798;28;20044;-46
2024/03/23 05:20:47;;;;;;;12.38;9.95;;;10.50;99.90;;;;;;5079729;28;20039;-46
2024/03/23 05:23:13;;;;;;;13.85;9.82;;;10.50;99.90;;;;;;5072908;28;20144;-47
2024/03/23 05:25:39;;;;;;;14.40;9.68;;;10.70;99.90;;;;;;5081819;28;20055;-46
2024/03/23 05:28:05;;;;;;;13.35;9.35;;;10.70;99.90;;;;;;5082082;28;20052;-48
2024/03/23 05:30:31;;;;;;;11.50;8.32;;;10.90;99.90;;;;;;5079496;28;20040;-47
2024/03/23 05:32:57;;;;;;;13.23;9.60;;;11.00;99.90;;;;;;5077221;28;20474;-44
2024/03/23 05:35:23;;;;;;;12.45;8.95;;;11.10;99.90;;;;;;5080974;28;20043;-47
2024/03/23 05:37:49;;;;;;;14.18;10.10;;;11.20;99.90;;;;;;5075008;28;20081;-45
2024/03/23 05:40:16;;;;;;;14.25;9.88;;;11.20;99.90;;;;;;5074226;28;20058;-45
2024/03/23 05:42:42;;;;;;;12.82;10.23;;;11.20;99.90;;;;;;5067939;28;20100;-47
2024/03/23 05:45:08;;;;;;;15.73;10.00;;;11.30;99.90;;;;;;5074723;28;20117;-46
2024/03/23 05:47:34;;;;;;;17.45;11.57;;;11.30;99.90;;;;;;5072896;28;20036;-46
2024/03/23 05:50:01;;;;;;;18.75;10.00;;;11.50;99.90;;;;;;5079505;28;20097;-48
2024/03/23 05:52:29;;;;;;;18.05;10.05;;;11.50;99.90;;;;;;5071833;28;20060;-48
2024/03/23 05:54:55;;;;;;;14.18;9.65;;;11.50;99.90;;;;;;5075899;28;20123;-44
2024/03/23 05:57:21;;;;;;;12.45;9.15;;;11.50;99.90;;;;;;5064776;28;20040;-45
2024/03/23 05:59:47;;;;;;;14.35;9.32;;;11.60;99.90;;;;;;5057486;28;20048;-43
2024/03/23 06:02:14;;;;;;;14.93;8.30;;;11.60;99.90;;;;;;5070503;28;20056;-44
2024/03/23 06:04:40;;;;;;;13.45;8.60;;;11.60;99.90;;;;;;5064227;28;20045;-44
2024/03/23 06:07:06;;;;;;;9.45;8.15;;;11.60;99.90;;;;;;5072837;28;20505;-44
2024/03/23 06:09:32;;;;;;;9.10;7.32;;;11.60;99.90;;;;;;5076576;28;20180;-51
2024/03/23 06:11:59;;;;;;;9.25;7.25;;;11.60;99.90;;;;;;5078740;28;20086;-49
2024/03/23 06:14:24;;;;;;;10.00;7.80;;;11.60;99.90;;;;;;5077607;28;20045;-45
2024/03/23 06:16:50;;;;;;;9.05;8.10;;;11.50;99.90;;;;;;5072063;28;20529;-47
2024/03/23 06:19:16;;;;;;;10.73;8.10;;;11.40;99.90;;;;;;5074172;28;20057;-48
2024/03/23 06:21:45;;;;;;;11.30;9.05;;;11.10;99.90;;;;;;5073902;28;20044;-44
2024/03/23 06:24:12;;;;;;;12.63;7.97;;;11.00;99.90;;;;;;5073381;28;20056;-45
2024/03/23 06:26:38;;;;;;;11.25;8.23;;;10.80;99.90;;;;;;5075347;28;20498;-44
2024/03/23 06:29:05;;;;;;;11.63;8.90;;;10.90;99.90;;;;;;5073188;28;20153;-43
2024/03/23 06:31:31;;;;;;;12.60;9.10;;;10.80;99.90;;;;;;5070921;28;20043;-45
2024/03/23 06:33:57;;;;;;;12.77;9.23;;;10.80;99.90;;;;;;5077214;28;20044;-49
2024/03/23 06:36:23;;;;;;;12.10;9.18;;;10.80;99.90;;;;;;5070548;28;20084;-47
2024/03/23 06:38:50;;;;;;;12.48;9.63;;;10.80;99.90;;;;;;5077941;28;20067;-46
2024/03/23 06:41:17;;;;;;;14.32;10.13;;;10.80;99.90;;;;;;5070233;28;20045;-44
2024/03/23 06:43:43;;;;;;;14.70;10.32;;;10.80;99.90;;;;;;5072279;28;20052;-49
2024/03/23 06:46:09;;;;;;;18.48;12.57;;;10.80;99.90;;;;;;5071584;28;20041;-44
2024/03/23 06:48:35;;;;;;;15.32;10.63;;;10.80;99.90;;;;;;5073210;28;20044;-44
2024/03/23 06:51:01;;;;;;;17.42;11.65;;;10.90;99.90;;;;;;5073165;28;20097;-45
2024/03/23 06:53:27;;;;;;;13.70;11.00;;;10.90;99.90;;;;;;5071159;28;20496;-43
2024/03/23 06:55:54;;;;;;;18.15;11.25;;;10.90;99.90;;;;;;5070952;28;20120;-44
2024/03/23 06:58:21;;;;;;;17.08;11.48;;;10.90;99.90;;;;;;5071918;28;20461;-45
2024/03/23 07:00:47;;;;;;;14.65;10.07;;;10.90;99.90;;;;;;5053719;28;20513;-45
2024/03/23 07:03:14;;;;;;;18.52;11.05;;;10.90;99.90;;;;;;5059358;28;20055;-44
2024/03/23 07:05:40;;;;;;;16.35;11.43;;;10.90;99.90;;;;;;5066557;28;20439;-44
2024/03/23 07:08:06;;;;;;;17.73;11.38;;;10.90;99.90;;;;;;5072078;28;20048;-43
2024/03/23 07:10:32;;;;;;;16.35;10.55;;;10.90;99.90;;;;;;5066933;28;20041;-46
2024/03/23 07:12:58;;;;;;;16.67;10.60;;;10.90;99.90;;;;;;5082071;28;20064;-44
2024/03/23 07:15:24;;;;;;;14.48;9.73;;;10.90;99.90;;;;;;5073775;28;20028;-44
2024/03/23 07:17:50;;;;;;;15.70;9.93;;;10.90;99.90;;;;;;5066592;28;20094;-44
2024/03/23 07:20:16;;;;;;;16.17;9.30;;;10.90;99.90;;;;;;5071285;28;20049;-44
2024/03/23 07:22:42;;;;;;;12.48;9.05;;;10.80;99.90;;;;;;5070883;28;20391;-42
2024/03/23 07:25:08;;;;;;;13.52;8.40;;;10.80;99.90;;;;;;5066920;28;20121;-42
2024/03/23 07:27:34;;;;;;;12.70;8.25;;;10.80;99.90;;;;;;5077165;28;20160;-46
2024/03/23 07:30:01;;;;;;;12.65;8.02;;;10.80;99.90;;;;;;5069077;28;20036;-48
2024/03/23 07:32:27;;;;;;;13.52;8.60;;;10.80;99.90;;;;;;5055084;28;20040;-43
2024/03/23 07:34:53;;;;;;;13.50;7.70;;;10.70;99.90;;;;;;5071849;28;20062;-46
2024/03/23 07:37:19;;;;;;;12.05;7.53;;;10.70;99.90;;;;;;5066475;28;20713;-43
2024/03/23 07:39:45;;;;;;;9.93;7.07;;;10.70;99.90;;;;;;5066167;28;20043;-44
2024/03/23 07:42:11;;;;;;;12.45;7.97;;;10.70;99.90;;;;;;5067838;28;20044;-45
2024/03/23 07:44:37;;;;;;;14.20;8.93;;;10.70;99.90;;;;;;5065670;28;20044;-45
2024/03/23 07:47:03;;;;;;;12.15;8.02;;;10.60;99.90;;;;;;5066013;28;20097;-45
2024/03/23 07:49:29;;;;;;;16.27;7.93;;;10.60;99.90;;;;;;5067565;28;20159;-41
2024/03/23 07:51:55;;;;;;;13.70;8.40;;;10.50;99.90;;;;;;5064826;28;20453;-41
2024/03/23 07:54:21;;;;;;;13.18;8.70;;;10.60;99.90;;;;;;5076787;28;20217;-43
2024/03/23 07:56:47;;;;;;;11.02;7.72;;;10.70;99.90;;;;;;5069885;28;20641;-46
2024/03/23 07:59:13;;;;;;;12.40;7.90;;;10.80;99.90;;;;;;5073766;28;20135;-46
2024/03/23 08:01:39;;;;;;;12.43;8.35;;;10.90;99.90;;;;;;5079273;28;20075;-49
2024/03/23 08:04:06;;;;;;;13.07;8.40;;;10.90;99.90;;;;;;5051740;28;20317;-48
2024/03/23 08:06:32;;;;;;;13.80;8.15;;;10.90;99.90;;;;;;5077471;28;20043;-47
2024/03/23 08:09:01;;;;;;;14.40;9.02;;;11.00;99.90;;;;;;5068813;28;20037;-47
2024/03/23 08:11:28;;;;;;;12.60;8.95;;;11.10;99.90;;;;;;5068879;28;20051;-42
2024/03/23 08:13:55;;;;;;;12.50;7.65;;;11.30;99.90;;;;;;5070815;28;20129;-45
2024/03/23 08:16:21;;;;;;;11.65;7.95;;;11.30;99.90;;;;;;5075204;28;20037;-45
2024/03/23 08:18:47;;;;;;;13.23;8.02;;;11.20;99.90;;;;;;5068877;28;20360;-41
2024/03/23 08:21:13;;;;;;;11.60;7.88;;;11.00;99.90;;;;;;5072709;28;20044;-43
2024/03/23 08:23:40;;;;;;;10.88;6.97;;;10.80;99.90;;;;;;5050127;28;20113;-49
2024/03/23 08:26:11;;;;;;;12.20;7.05;;;10.40;99.90;;;;;;5067655;28;20055;-42
2024/03/23 08:28:37;;;;;;;9.15;6.32;;;9.70;99.90;;;;;;5071463;28;20040;-48
2024/03/23 08:31:08;;;;;;;9.18;5.68;;;9.40;99.90;;;;;;5066066;28;20128;-45
2024/03/23 08:33:34;;;;;;;9.43;6.00;;;9.00;99.90;;;;;;5067086;28;20036;-43
2024/03/23 08:36:02;;;;;;;10.32;6.30;;;9.00;99.90;;;;;;5075134;28;20096;-48
2024/03/23 08:38:29;;;;;;;8.13;5.80;;;8.90;99.90;;;;;;5072953;28;20051;-43
2024/03/23 08:41:02;;;;;;;6.65;4.40;;;8.90;99.90;;;;;;5076052;28;20045;-46
2024/03/23 08:43:29;;;;;;;6.47;4.07;;;8.90;99.90;;;;;;5068140;28;20078;-42
2024/03/23 08:46:16;;;;;;;7.95;4.10;;;9.10;99.90;;;;;;5077654;28;20056;-47
2024/03/23 08:48:48;;;;;;;4.43;3.75;;;9.00;99.90;;;;;;5077672;28;20040;-48
2024/03/23 08:51:16;;;;;;;5.97;4.50;;;9.00;99.90;;;;;;5080559;28;20094;-44
2024/03/23 08:53:43;;;;;;;4.70;3.97;;;8.90;99.90;;;;;;5072786;28;20036;-44
2024/03/23 08:56:10;;;;;;;6.03;3.88;;;9.20;99.90;;;;;;5079419;28;20394;-44
2024/03/23 08:58:37;;;;;;;7.70;4.32;;;9.50;99.90;;;;;;5086394;28;20049;-45
2024/03/23 09:01:11;;;;;;;6.43;4.38;;;9.60;99.90;;;;;;5068331;28;20521;-46
2024/03/23 09:03:37;;;;;;;6.55;4.32;;;9.70;99.90;;;;;;5070365;28;20039;-42
2024/03/23 09:06:11;;;;;;;4.70;3.75;;;9.70;99.90;;;;;;5075431;28;20039;-43
2024/03/23 09:08:37;;;;;;;4.22;3.50;;;9.70;99.90;;;;;;5049131;28;20093;-46
2024/03/23 09:11:08;;;;;;;3.78;3.10;;;9.30;99.90;;;;;;5074292;28;20543;-45
2024/03/23 09:13:37;;;;;;;4.63;3.50;;;9.10;99.90;;;;;;5071945;28;20327;-42
2024/03/23 09:16:05;;;;;;;5.55;4.10;;;9.10;99.90;;;;;;5080036;28;20456;-43
2024/03/23 09:18:33;;;;;;;3.92;3.15;;;9.30;99.90;;;;;;5069733;28;20036;-46
2024/03/23 09:20:59;;;;;;;3.60;2.80;;;9.40;99.90;;;;;;5075225;28;20340;-43
2024/03/23 09:23:25;;;;;;;4.70;3.30;;;9.40;99.90;;;;;;5075210;28;20296;-44
2024/03/23 09:25:51;;;;;;;3.47;2.80;;;9.30;99.90;;;;;;5072382;28;20055;-48
2024/03/23 09:28:17;;;;;;;3.10;2.65;;;9.10;99.90;;;;;;5074926;28;20421;-48
2024/03/23 09:30:43;;;;;;;2.70;2.50;;;9.00;99.90;;;;;;5073539;28;20527;-49
2024/03/23 09:33:10;;;;;;;2.58;2.22;;;9.00;99.90;;;;;;5076916;28;20045;-47
2024/03/23 09:35:39;;;;;;;2.70;2.33;;;8.80;99.90;;;;;;5063019;28;20517;-42
2024/03/23 09:38:07;;;;;;;2.58;2.30;;;8.80;99.90;;;;;;5072113;28;20048;-46
2024/03/23 09:40:33;;;;;;;2.53;2.22;;;8.80;99.90;;;;;;5069102;28;20050;-50
2024/03/23 09:42:59;;;;;;;2.42;2.00;;;9.00;99.90;;;;;;5073701;28;20048;-46
2024/03/23 09:45:29;;;;;;;4.30;2.45;;;9.10;99.90;;;;;;5075038;28;20044;-45
2024/03/23 09:47:56;;;;;;;2.85;2.50;;;9.30;99.90;;;;;;5071026;28;20063;-48
2024/03/23 09:50:22;;;;;;;3.65;2.30;;;9.20;99.90;;;;;;5077937;28;20040;-43
2024/03/23 09:52:49;;;;;;;4.38;2.50;;;9.20;99.90;;;;;;5072877;28;20496;-46
2024/03/23 09:55:15;;;;;;;2.45;2.17;;;9.30;99.90;;;;;;5073411;28;20048;-41
2024/03/23 09:57:42;;;;;;;2.50;2.30;;;9.40;99.90;;;;;;5070948;28;20063;-49
2024/03/23 10:00:09;;;;;;;4.28;2.20;;;9.60;99.90;;;;;;5070241;28;20516;-44
2024/03/23 10:02:35;;;;;;;2.50;2.30;;;9.60;99.90;;;;;;5081366;28;20575;-43
2024/03/23 10:05:02;;;;;;;2.88;2.10;;;9.60;99.90;;;;;;5070429;28;20040;-48
2024/03/23 10:07:28;;;;;;;2.50;2.30;;;9.80;99.90;;;;;;5075935;28;20050;-48
2024/03/23 10:09:54;;;;;;;2.88;2.58;;;9.80;99.90;;;;;;5068641;28;20313;-45
2024/03/23 10:12:21;;;;;;;2.75;2.35;;;9.70;99.90;;;;;;5072618;28;20486;-43
2024/03/23 10:14:47;;;;;;;2.72;2.50;;;9.60;99.90;;;;;;5076671;28;20044;-46
2024/03/23 10:17:24;;;;;;;3.20;2.65;;;9.80;99.90;;;;;;5070371;28;20045;-48
2024/03/23 10:19:51;;;;;;;2.70;2.50;;;9.60;99.90;;;;;;5069643;28;20591;-44
2024/03/23 10:22:19;;;;;;;4.40;2.63;;;9.50;99.90;;;;;;5066059;28;20101;-42
2024/03/23 10:24:45;;;;;;;3.05;2.75;;;9.60;99.90;;;;;;5073910;28;20045;-44
2024/03/23 10:27:21;;;;;;;3.50;3.00;;;9.60;99.90;;;;;;5077064;28;20047;-47
2024/03/23 10:29:49;;;;;;;3.75;3.00;;;9.70;99.90;;;;;;5073283;28;20060;-42
2024/03/23 10:32:16;;;;;;;3.10;2.80;;;9.70;99.90;;;;;;5076397;28;20089;-48
2024/03/23 10:34:43;;;;;;;3.67;3.13;;;9.70;99.90;;;;;;5076911;28;20055;-42
2024/03/23 10:37:09;;;;;;;3.97;3.10;;;9.80;99.90;;;;;;5076630;28;20048;-47
2024/03/23 10:39:37;;;;;;;4.22;3.10;;;9.90;99.90;;;;;;5074657;28;20132;-44
2024/03/23 10:42:05;;;;;;;3.92;3.47;;;9.90;99.90;;;;;;5073662;28;20285;-42
2024/03/23 10:44:31;;;;;;;5.70;3.63;;;10.00;99.90;;;;;;5081568;28;20047;-46
2024/03/23 10:47:02;;;;;;;5.05;3.72;;;9.80;99.90;;;;;;5073095;28;20555;-44
2024/03/23 10:49:33;;;;;;;4.55;3.60;;;9.80;99.90;;;;;;5073174;28;20519;-42
2024/03/23 10:52:00;;;;;;;7.28;3.67;;;9.60;99.90;;;;;;5066124;28;20517;-44
2024/03/23 10:54:27;;;;;;;4.88;3.78;;;9.60;99.90;;;;;;5075307;28;20044;-44
2024/03/23 10:57:03;;;;;;;4.53;3.55;;;9.70;99.90;;;;;;5066548;28;20060;-49
2024/03/23 10:59:30;;;;;;;6.45;3.72;;;9.80;99.90;;;;;;5075248;28;20081;-42
2024/03/23 11:01:58;;;;;;;4.85;3.63;;;9.90;99.90;;;;;;5060279;28;20080;-43
2024/03/23 11:04:30;;;;;;;7.03;4.28;;;9.60;99.90;;;;;;5071603;28;20048;-46
2024/03/23 11:06:57;;;;;;;6.60;4.10;;;9.50;99.90;;;;;;5074344;28;20070;-45
2024/03/23 11:09:35;;;;;;;5.82;4.00;;;9.60;99.90;;;;;;5068609;28;20041;-42
2024/03/23 11:12:32;;;;;;;5.22;4.00;;;9.90;99.90;;;;;;5066776;28;20074;-42
2024/03/23 11:15:12;;;;;;;8.50;5.90;;;10.30;99.90;;;;;;5067484;28;20058;-45
2024/03/23 11:17:38;;;;;;;5.63;4.47;;;10.40;99.90;;;;;;5074290;28;20086;-46
2024/03/23 11:20:05;;;;;;;6.38;4.50;;;10.50;99.90;;;;;;5072946;28;20041;-43
2024/03/23 11:22:51;;;;;;;5.05;4.30;;;10.70;99.90;;;;;;5064627;28;20449;-44
2024/03/23 11:25:22;;;;;;;6.47;4.68;;;11.20;99.90;;;;;;5072476;28;20120;-43
2024/03/23 11:27:53;;;;;;;9.25;5.60;;;10.90;99.90;;;;;;5071579;28;20086;-41
2024/03/23 11:30:23;;;;;;;6.10;5.43;;;10.70;99.90;;;;;;5086951;28;20045;-46
2024/03/23 11:32:56;;;;;;;7.47;5.97;;;10.40;99.90;;;;;;5067392;28;20062;-42
2024/03/23 11:35:31;;;;;;;7.07;5.45;;;10.30;99.90;;;;;;5062928;28;20036;-42
2024/03/23 11:38:09;;;;;;;8.82;5.07;;;9.90;99.90;;;;;;5070887;28;20064;-48
2024/03/23 11:40:36;;;;;;;8.60;4.97;;;10.00;99.90;;;;;;5063167;28;20044;-44
2024/03/23 11:43:06;;;;;;;6.55;4.53;;;9.90;99.90;;;;;;5069909;28;20113;-44
2024/03/23 11:45:41;;;;;;;7.72;5.22;;;9.80;99.90;;;;;;5058066;28;20051;-49
2024/03/23 11:48:12;;;;;;;6.95;4.90;;;9.90;99.90;;;;;;5065815;28;20044;-46
2024/03/23 11:50:41;;;;;;;8.90;5.07;;;10.40;99.90;;;;;;5070072;28;20059;-44
2024/03/23 11:53:16;;;;;;;7.63;5.35;;;10.70;99.90;;;;;;5069574;28;20052;-45
2024/03/23 11:55:52;;;;;;;8.82;5.80;;;11.40;99.90;;;;;;5071481;28;20056;-44
2024/03/23 11:58:22;;;;;;;8.02;4.90;;;11.30;99.90;;;;;;5059257;28;20199;-46
2024/03/23 12:00:52;;;;;;;7.10;5.45;;;10.90;99.90;;;;;;5063920;28;20082;-42
2024/03/23 12:03:25;;;;;;;8.03;4.97;;;11.10;99.90;;;;;;5067620;28;20666;-42
2024/03/23 12:05:53;;;;;;;7.93;4.95;;;10.60;99.90;;;;;;5073904;28;20892;-44
2024/03/23 12:08:23;;;;;;;6.40;5.03;;;10.90;99.90;;;;;;5065335;28;20048;-48
2024/03/23 12:11:04;;;;;;;5.57;4.63;;;11.10;99.90;;;;;;5071588;28;20040;-51
2024/03/23 12:13:30;;;;;;;6.68;4.90;;;11.50;99.90;;;;;;5073283;28;20058;-46
2024/03/23 12:16:08;;;;;;;6.35;4.60;;;11.80;99.90;;;;;;5077445;28;20561;-43
2024/03/23 12:18:34;;;;;;;7.18;5.00;;;12.40;99.90;;;;;;5070386;28;20052;-45
2024/03/23 12:21:00;;;;;;;8.57;5.25;;;12.50;99.90;;;;;;5072887;28;20051;-41
2024/03/23 12:23:26;;;;;;;7.30;4.90;;;12.60;99.90;;;;;;5067372;28;20673;-45
2024/03/23 12:25:52;;;;;;;6.90;5.45;;;12.40;99.90;;;;;;5072349;28;20480;-46
2024/03/23 12:28:18;;;;;;;5.93;4.85;;;11.90;99.90;;;;;;5078267;28;20052;-47
2024/03/23 12:30:44;;;;;;;8.88;5.28;;;11.40;99.90;;;;;;5071880;28;20029;-47
2024/03/23 12:33:10;;;;;;;7.68;5.22;;;11.70;99.90;;;;;;5062749;28;20048;-48
2024/03/23 12:35:36;;;;;;;8.23;5.15;;;12.30;99.90;;;;;;5065298;28;20055;-42
2024/03/23 12:38:02;;;;;;;8.27;5.40;;;13.10;99.90;;;;;;5071341;28;20045;-43
2024/03/23 12:40:28;;;;;;;7.20;5.05;;;14.20;99.90;;;;;;5076987;28;20040;-46